sensor_id;sensor_type;location;lat;lon;timestamp;pressure;altitude;pressure_sealevel;temperature;humidity
32243;BME280;18731;42.830;24.390;2022-12-29T02:59:24;95313.84;;;4.19;79.67
32243;BME280;18731;42.830;24.390;2022-12-29T03:02:21;95310.94;;;4.20;79.56
32243;BME280;18731;42.830;24.390;2022-12-29T03:11:02;95297.97;;;4.19;79.28
32243;BME280;18731;42.830;24.390;2022-12-29T03:21:53;95303.28;;;4.09;79.28
32243;BME280;18731;42.830;24.390;2022-12-29T03:24:41;95307.00;;;4.03;79.25
32243;BME280;18731;42.830;24.390;2022-12-29T03:27:11;95300.41;;;4.00;79.16
32243;BME280;18731;42.830;24.390;2022-12-29T03:29:43;95308.03;;;4.07;78.97
32243;BME280;18731;42.830;24.390;2022-12-29T03:32:12;95304.34;;;4.03;78.76
32243;BME280;18731;42.830;24.390;2022-12-29T03:34:39;95309.91;;;4.01;78.49
32243;BME280;18731;42.830;24.390;2022-12-29T03:37:12;95310.44;;;3.98;78.30
32243;BME280;18731;42.830;24.390;2022-12-29T03:39:40;95312.81;;;4.00;78.15
32243;BME280;18731;42.830;24.390;2022-12-29T03:42:14;95312.03;;;3.99;78.25
32243;BME280;18731;42.830;24.390;2022-12-29T03:44:43;95311.50;;;3.97;77.84
32243;BME280;18731;42.830;24.390;2022-12-29T03:47:14;95312.28;;;3.93;77.59
32243;BME280;18731;42.830;24.390;2022-12-29T03:49:40;95310.97;;;3.80;77.70
32243;BME280;18731;42.830;24.390;2022-12-29T03:52:06;95292.75;;;3.63;77.50
32243;BME280;18731;42.830;24.390;2022-12-29T03:54:32;95314.41;;;3.70;77.17
32243;BME280;18731;42.830;24.390;2022-12-29T03:56:57;95310.97;;;3.54;77.85
32243;BME280;18731;42.830;24.390;2022-12-29T03:59:23;95311.75;;;3.55;77.92
32243;BME280;18731;42.830;24.390;2022-12-29T04:01:49;95309.38;;;3.43;77.87
32243;BME280;18731;42.830;24.390;2022-12-29T04:04:14;95320.72;;;3.44;77.86
32243;BME280;18731;42.830;24.390;2022-12-29T04:06:40;95332.59;;;3.36;78.56
32243;BME280;18731;42.830;24.390;2022-12-29T04:09:06;95326.00;;;3.34;78.17
32243;BME280;18731;42.830;24.390;2022-12-29T04:11:31;95323.88;;;3.26;78.05
32243;BME280;18731;42.830;24.390;2022-12-29T04:13:57;95330.75;;;3.32;77.96
32243;BME280;18731;42.830;24.390;2022-12-29T04:16:22;95338.13;;;3.35;77.37
32243;BME280;18731;42.830;24.390;2022-12-29T04:18:48;95337.84;;;3.26;77.36
32243;BME280;18731;42.830;24.390;2022-12-29T04:21:13;95339.72;;;3.31;77.02
32243;BME280;18731;42.830;24.390;2022-12-29T04:23:39;95346.56;;;3.27;76.82
32243;BME280;18731;42.830;24.390;2022-12-29T04:26:06;95340.47;;;3.21;77.38
32243;BME280;18731;42.830;24.390;2022-12-29T04:28:33;95344.44;;;3.18;77.45
32243;BME280;18731;42.830;24.390;2022-12-29T04:30:59;95341.78;;;3.13;76.88
32243;BME280;18731;42.830;24.390;2022-12-29T04:33:25;95344.88;;;2.95;77.84
32243;BME280;18731;42.830;24.390;2022-12-29T04:35:50;95341.94;;;2.81;78.04
32243;BME280;18731;42.830;24.390;2022-12-29T04:38:18;95361.22;;;2.92;77.94
32243;BME280;18731;42.830;24.390;2022-12-29T04:40:44;95343.25;;;2.84;77.73
32243;BME280;18731;42.830;24.390;2022-12-29T04:43:10;95351.75;;;2.96;77.14
32243;BME280;18731;42.830;24.390;2022-12-29T04:45:36;95354.09;;;2.87;77.67
32243;BME280;18731;42.830;24.390;2022-12-29T04:48:02;95345.88;;;2.79;78.04
32243;BME280;18731;42.830;24.390;2022-12-29T04:50:28;95350.88;;;2.75;78.02
32243;BME280;18731;42.830;24.390;2022-12-29T04:52:53;95361.13;;;2.72;78.14
32243;BME280;18731;42.830;24.390;2022-12-29T04:55:19;95369.56;;;2.69;78.22
32243;BME280;18731;42.830;24.390;2022-12-29T04:57:45;95363.75;;;2.67;77.82
32243;BME280;18731;42.830;24.390;2022-12-29T05:00:11;95366.66;;;2.65;77.72
32243;BME280;18731;42.830;24.390;2022-12-29T05:02:37;95368.88;;;2.46;78.60
32243;BME280;18731;42.830;24.390;2022-12-29T05:05:03;95365.97;;;2.43;78.82
32243;BME280;18731;42.830;24.390;2022-12-29T05:07:29;95355.38;;;2.33;78.92
32243;BME280;18731;42.830;24.390;2022-12-29T05:09:54;95360.13;;;2.36;79.25
32243;BME280;18731;42.830;24.390;2022-12-29T05:12:20;95370.97;;;2.44;79.11
32243;BME280;18731;42.830;24.390;2022-12-29T05:14:46;95366.22;;;2.41;78.77
32243;BME280;18731;42.830;24.390;2022-12-29T05:17:13;95368.31;;;2.39;79.15
32243;BME280;18731;42.830;24.390;2022-12-29T05:19:38;95353.50;;;2.28;79.31
32243;BME280;18731;42.830;24.390;2022-12-29T05:22:04;95348.19;;;2.23;79.97
32243;BME280;18731;42.830;24.390;2022-12-29T05:24:30;95361.97;;;2.35;79.47
32243;BME280;18731;42.830;24.390;2022-12-29T05:26:55;95356.69;;;2.35;79.60
32243;BME280;18731;42.830;24.390;2022-12-29T05:29:21;95354.09;;;2.40;79.29
32243;BME280;18731;42.830;24.390;2022-12-29T05:31:46;95355.63;;;2.31;79.21
32243;BME280;18731;42.830;24.390;2022-12-29T05:34:12;95349.84;;;2.34;79.44
32243;BME280;18731;42.830;24.390;2022-12-29T05:36:38;95356.69;;;2.35;79.59
32243;BME280;18731;42.830;24.390;2022-12-29T05:39:05;95358.28;;;2.36;79.96
32243;BME280;18731;42.830;24.390;2022-12-29T05:41:33;95351.88;;;2.22;79.31
32243;BME280;18731;42.830;24.390;2022-12-29T05:44:00;95360.59;;;2.28;79.45
32243;BME280;18731;42.830;24.390;2022-12-29T05:46:25;95344.16;;;2.10;79.79
32243;BME280;18731;42.830;24.390;2022-12-29T05:48:51;95375.38;;;2.29;79.55
32243;BME280;18731;42.830;24.390;2022-12-29T05:51:17;95377.75;;;2.30;79.20
32243;BME280;18731;42.830;24.390;2022-12-29T05:53:42;95383.28;;;2.34;78.67
32243;BME280;18731;42.830;24.390;2022-12-29T05:56:08;95381.47;;;2.34;78.32
32243;BME280;18731;42.830;24.390;2022-12-29T05:58:33;95378.78;;;2.29;78.00
32243;BME280;18731;42.830;24.390;2022-12-29T06:00:59;95377.19;;;2.28;77.26
32243;BME280;18731;42.830;24.390;2022-12-29T06:03:25;95403.59;;;2.33;77.86
32243;BME280;18731;42.830;24.390;2022-12-29T06:05:50;95403.03;;;2.31;77.98
32243;BME280;18731;42.830;24.390;2022-12-29T06:08:16;95402.53;;;2.34;77.70
32243;BME280;18731;42.830;24.390;2022-12-29T06:10:41;95390.34;;;2.23;77.52
32243;BME280;18731;42.830;24.390;2022-12-29T06:13:07;95403.03;;;2.31;77.76
32243;BME280;18731;42.830;24.390;2022-12-29T06:15:33;95387.63;;;2.13;78.75
32243;BME280;18731;42.830;24.390;2022-12-29T06:17:59;95408.53;;;2.24;79.39
32243;BME280;18731;42.830;24.390;2022-12-29T06:20:25;95409.81;;;2.22;79.79
32243;BME280;18731;42.830;24.390;2022-12-29T06:22:51;95408.75;;;2.18;79.53
32243;BME280;18731;42.830;24.390;2022-12-29T06:25:16;95413.25;;;2.22;79.91
32243;BME280;18731;42.830;24.390;2022-12-29T06:27:43;95418.00;;;2.25;80.10
32243;BME280;18731;42.830;24.390;2022-12-29T06:30:09;95421.00;;;2.39;79.65
32243;BME280;18731;42.830;24.390;2022-12-29T06:32:35;95417.31;;;2.40;79.71
32243;BME280;18731;42.830;24.390;2022-12-29T06:35:02;95418.84;;;2.31;79.91
32243;BME280;18731;42.830;24.390;2022-12-29T06:37:28;95425.13;;;2.25;80.22
32243;BME280;18731;42.830;24.390;2022-12-29T06:39:53;95423.81;;;2.28;80.34
32243;BME280;18731;42.830;24.390;2022-12-29T06:42:19;95419.84;;;2.25;81.28
32243;BME280;18731;42.830;24.390;2022-12-29T06:44:45;95424.63;;;2.28;80.93
32243;BME280;18731;42.830;24.390;2022-12-29T06:47:11;95415.56;;;2.14;82.35
32243;BME280;18731;42.830;24.390;2022-12-29T06:49:36;95429.31;;;2.21;83.02
32243;BME280;18731;42.830;24.390;2022-12-29T06:52:03;95417.47;;;2.23;82.17
32243;BME280;18731;42.830;24.390;2022-12-29T06:54:30;95427.53;;;2.32;81.84
32243;BME280;18731;42.830;24.390;2022-12-29T06:56:56;95431.47;;;2.29;82.95
32243;BME280;18731;42.830;24.390;2022-12-29T06:59:22;95424.03;;;2.21;82.33
32243;BME280;18731;42.830;24.390;2022-12-29T07:01:48;95426.22;;;2.29;82.31
32243;BME280;18731;42.830;24.390;2022-12-29T07:04:14;95434.66;;;2.31;82.92
32243;BME280;18731;42.830;24.390;2022-12-29T07:06:39;95437.88;;;2.38;82.44
32243;BME280;18731;42.830;24.390;2022-12-29T07:09:08;95428.41;;;2.42;81.99
32243;BME280;18731;42.830;24.390;2022-12-29T07:11:34;95432.69;;;2.53;81.14
32243;BME280;18731;42.830;24.390;2022-12-29T07:14:00;95428.44;;;2.47;81.29
32243;BME280;18731;42.830;24.390;2022-12-29T07:16:26;95424.53;;;2.55;81.52
32243;BME280;18731;42.830;24.390;2022-12-29T07:18:54;95420.06;;;2.55;81.50
32243;BME280;18731;42.830;24.390;2022-12-29T07:21:20;95425.44;;;2.66;81.16
32243;BME280;18731;42.830;24.390;2022-12-29T07:23:46;95412.69;;;2.57;81.13
32243;BME280;18731;42.830;24.390;2022-12-29T07:26:13;95431.78;;;2.70;81.65
32243;BME280;18731;42.830;24.390;2022-12-29T07:28:39;95421.78;;;2.77;81.36
32243;BME280;18731;42.830;24.390;2022-12-29T07:31:15;95422.91;;;2.86;81.13
32243;BME280;18731;42.830;24.390;2022-12-29T07:33:42;95424.50;;;2.92;80.95
32243;BME280;18731;42.830;24.390;2022-12-29T07:36:09;95408.16;;;2.90;81.21
32243;BME280;18731;42.830;24.390;2022-12-29T07:38:34;95430.91;;;3.06;81.04
32243;BME280;18731;42.830;24.390;2022-12-29T07:41:00;95420.34;;;3.06;80.99
32243;BME280;18731;42.830;24.390;2022-12-29T07:43:25;95433.91;;;3.35;81.30
32243;BME280;18731;42.830;24.390;2022-12-29T07:45:51;95428.47;;;3.72;81.08
32243;BME280;18731;42.830;24.390;2022-12-29T07:48:17;95422.19;;;4.19;80.78
32243;BME280;18731;42.830;24.390;2022-12-29T07:50:42;95424.50;;;4.61;79.83
32243;BME280;18731;42.830;24.390;2022-12-29T07:53:08;95406.97;;;5.01;78.31
32243;BME280;18731;42.830;24.390;2022-12-29T07:55:34;95415.47;;;5.57;76.14
32243;BME280;18731;42.830;24.390;2022-12-29T07:57:59;95415.94;;;6.13;73.97
32243;BME280;18731;42.830;24.390;2022-12-29T08:00:25;95422.63;;;6.69;70.54
32243;BME280;18731;42.830;24.390;2022-12-29T08:02:51;95414.69;;;7.17;68.07
32243;BME280;18731;42.830;24.390;2022-12-29T08:05:17;95407.72;;;7.63;66.27
32243;BME280;18731;42.830;24.390;2022-12-29T08:07:43;95408.63;;;8.15;64.57
32243;BME280;18731;42.830;24.390;2022-12-29T08:10:09;95417.38;;;8.34;62.89
32243;BME280;18731;42.830;24.390;2022-12-29T08:12:36;95409.63;;;8.84;61.93
32243;BME280;18731;42.830;24.390;2022-12-29T08:15:03;95401.56;;;9.17;61.08
32243;BME280;18731;42.830;24.390;2022-12-29T08:17:28;95418.00;;;9.46;60.07
32243;BME280;18731;42.830;24.390;2022-12-29T08:19:54;95408.19;;;9.83;59.32
32243;BME280;18731;42.830;24.390;2022-12-29T08:22:19;95406.97;;;9.89;58.65
32243;BME280;18731;42.830;24.390;2022-12-29T08:24:45;95419.91;;;10.31;58.06
32243;BME280;18731;42.830;24.390;2022-12-29T08:27:10;95411.31;;;10.57;58.18
32243;BME280;18731;42.830;24.390;2022-12-29T08:29:36;95407.47;;;10.72;56.78
32243;BME280;18731;42.830;24.390;2022-12-29T08:32:02;95408.41;;;10.98;56.24
32243;BME280;18731;42.830;24.390;2022-12-29T08:34:28;95398.75;;;11.28;56.14
32243;BME280;18731;42.830;24.390;2022-12-29T08:36:53;95394.38;;;11.32;55.56
32243;BME280;18731;42.830;24.390;2022-12-29T08:39:19;95394.28;;;11.54;54.80
32243;BME280;18731;42.830;24.390;2022-12-29T08:41:44;95377.84;;;11.78;54.27
32243;BME280;18731;42.830;24.390;2022-12-29T08:44:10;95377.53;;;11.88;54.05
32243;BME280;18731;42.830;24.390;2022-12-29T08:46:37;95376.59;;;12.10;54.11
32243;BME280;18731;42.830;24.390;2022-12-29T08:49:03;95380.03;;;12.28;52.92
32243;BME280;18731;42.830;24.390;2022-12-29T08:51:28;95381.91;;;12.53;53.81
32243;BME280;18731;42.830;24.390;2022-12-29T08:53:54;95374.72;;;12.83;53.15
32243;BME280;18731;42.830;24.390;2022-12-29T08:56:19;95377.03;;;13.11;52.46
32243;BME280;18731;42.830;24.390;2022-12-29T08:58:45;95338.41;;;13.12;51.57
32243;BME280;18731;42.830;24.390;2022-12-29T09:01:11;95368.41;;;13.64;50.21
32243;BME280;18731;42.830;24.390;2022-12-29T09:03:37;95354.44;;;13.79;50.01
32243;BME280;18731;42.830;24.390;2022-12-29T09:06:02;95356.53;;;13.95;49.99
32243;BME280;18731;42.830;24.390;2022-12-29T09:08:28;95339.75;;;13.98;49.11
32243;BME280;18731;42.830;24.390;2022-12-29T09:10:54;95348.19;;;14.08;49.69
32243;BME280;18731;42.830;24.390;2022-12-29T09:13:19;95330.22;;;13.88;49.18
32243;BME280;18731;42.830;24.390;2022-12-29T09:15:45;95336.75;;;13.99;50.25
32243;BME280;18731;42.830;24.390;2022-12-29T09:18:11;95333.28;;;13.78;49.40
32243;BME280;18731;42.830;24.390;2022-12-29T09:20:37;95324.50;;;13.69;50.47
32243;BME280;18731;42.830;24.390;2022-12-29T09:23:03;95331.09;;;14.13;50.03
32243;BME280;18731;42.830;24.390;2022-12-29T09:25:31;95329.25;;;14.26;48.88
32243;BME280;18731;42.830;24.390;2022-12-29T09:27:56;95327.63;;;14.12;49.08
32243;BME280;18731;42.830;24.390;2022-12-29T09:30:23;95315.03;;;13.92;49.05
32243;BME280;18731;42.830;24.390;2022-12-29T09:32:49;95331.19;;;14.04;49.78
32243;BME280;18731;42.830;24.390;2022-12-29T09:35:15;95325.34;;;14.02;49.33
32243;BME280;18731;42.830;24.390;2022-12-29T09:37:42;95310.97;;;13.65;49.89
32243;BME280;18731;42.830;24.390;2022-12-29T09:40:21;95314.63;;;13.02;50.96
32243;BME280;18731;42.830;24.390;2022-12-29T09:45:44;95308.31;;;12.60;52.08
32243;BME280;18731;42.830;24.390;2022-12-29T09:48:34;95303.31;;;12.49;52.61
32243;BME280;18731;42.830;24.390;2022-12-29T09:51:09;95299.91;;;12.23;53.50
32243;BME280;18731;42.830;24.390;2022-12-29T09:53:38;95294.84;;;12.30;53.51
32243;BME280;18731;42.830;24.390;2022-12-29T09:56:21;95292.16;;;12.39;54.23
32243;BME280;18731;42.830;24.390;2022-12-29T09:58:52;95287.72;;;12.43;54.52
32243;BME280;18731;42.830;24.390;2022-12-29T10:01:41;95288.78;;;12.59;53.37
32243;BME280;18731;42.830;24.390;2022-12-29T10:04:08;95288.84;;;12.80;53.65
32243;BME280;18731;42.830;24.390;2022-12-29T10:06:42;95275.03;;;13.07;52.93
32243;BME280;18731;42.830;24.390;2022-12-29T10:15:08;95268.69;;;13.41;51.77
32243;BME280;18731;42.830;24.390;2022-12-29T10:17:52;95269.34;;;13.80;50.38
32243;BME280;18731;42.830;24.390;2022-12-29T10:23:29;95263.22;;;14.45;47.13
32243;BME280;18731;42.830;24.390;2022-12-29T10:25:58;95263.78;;;14.63;47.35
32243;BME280;18731;42.830;24.390;2022-12-29T10:28:39;95251.72;;;14.82;47.43
32243;BME280;18731;42.830;24.390;2022-12-29T10:31:16;95259.31;;;15.16;46.25
32243;BME280;18731;42.830;24.390;2022-12-29T10:33:49;95256.03;;;15.47;47.34
32243;BME280;18731;42.830;24.390;2022-12-29T10:36:39;95248.91;;;15.79;46.71
32243;BME280;18731;42.830;24.390;2022-12-29T10:41:46;95242.06;;;16.10;47.67
32243;BME280;18731;42.830;24.390;2022-12-29T10:44:16;95218.88;;;16.21;45.11
32243;BME280;18731;42.830;24.390;2022-12-29T10:46:43;95242.03;;;16.53;42.94
32243;BME280;18731;42.830;24.390;2022-12-29T10:49:21;95236.22;;;16.51;44.55
32243;BME280;18731;42.830;24.390;2022-12-29T10:51:50;95232.94;;;16.74;43.96
32243;BME280;18731;42.830;24.390;2022-12-29T10:54:58;95232.59;;;16.91;42.92
32243;BME280;18731;42.830;24.390;2022-12-29T10:57:37;95230.91;;;17.02;43.42
32243;BME280;18731;42.830;24.390;2022-12-29T11:00:17;95228.19;;;17.18;43.22
32243;BME280;18731;42.830;24.390;2022-12-29T11:08:10;95220.22;;;17.41;41.21
32243;BME280;18731;42.830;24.390;2022-12-29T11:10:41;95220.41;;;16.97;41.56
32243;BME280;18731;42.830;24.390;2022-12-29T11:13:15;95217.63;;;16.78;41.34
32243;BME280;18731;42.830;24.390;2022-12-29T11:15:47;95221.50;;;16.33;42.68
32243;BME280;18731;42.830;24.390;2022-12-29T11:18:21;95212.81;;;15.80;44.37
32243;BME280;18731;42.830;24.390;2022-12-29T11:20:49;95209.03;;;15.69;44.31
32243;BME280;18731;42.830;24.390;2022-12-29T11:26:22;95210.56;;;15.18;47.22
32243;BME280;18731;42.830;24.390;2022-12-29T11:29:21;95200.66;;;14.82;46.75
32243;BME280;18731;42.830;24.390;2022-12-29T11:31:52;95203.66;;;14.92;47.91
32243;BME280;18731;42.830;24.390;2022-12-29T11:34:39;95198.66;;;15.31;49.18
32243;BME280;18731;42.830;24.390;2022-12-29T11:37:14;95202.16;;;15.31;45.90
32243;BME280;18731;42.830;24.390;2022-12-29T11:39:46;95197.81;;;15.15;46.86
32243;BME280;18731;42.830;24.390;2022-12-29T11:42:18;95196.50;;;14.72;47.25
32243;BME280;18731;42.830;24.390;2022-12-29T11:44:46;95199.97;;;14.60;49.54
32243;BME280;18731;42.830;24.390;2022-12-29T11:47:22;95200.44;;;14.62;50.06
32243;BME280;18731;42.830;24.390;2022-12-29T11:49:51;95197.53;;;14.55;48.79
32243;BME280;18731;42.830;24.390;2022-12-29T11:52:22;95195.16;;;14.66;50.04
32243;BME280;18731;42.830;24.390;2022-12-29T11:54:50;95196.41;;;14.68;50.28
32243;BME280;18731;42.830;24.390;2022-12-29T11:57:17;95195.63;;;14.68;48.28
32243;BME280;18731;42.830;24.390;2022-12-29T11:59:50;95200.44;;;14.62;51.37
32243;BME280;18731;42.830;24.390;2022-12-29T12:02:41;95194.06;;;14.67;51.40
32243;BME280;18731;42.830;24.390;2022-12-29T12:07:42;95194.78;;;15.96;50.39
32243;BME280;18731;42.830;24.390;2022-12-29T12:10:33;95190.38;;;16.20;46.10
32243;BME280;18731;42.830;24.390;2022-12-29T12:13:10;95196.63;;;16.08;49.05
32243;BME280;18731;42.830;24.390;2022-12-29T12:15:46;95193.03;;;15.88;50.48
32243;BME280;18731;42.830;24.390;2022-12-29T12:27:00;95183.72;;;15.58;47.43
32243;BME280;18731;42.830;24.390;2022-12-29T12:29:57;95172.28;;;15.61;49.51
32243;BME280;18731;42.830;24.390;2022-12-29T12:32:44;95173.66;;;15.42;50.81
32243;BME280;18731;42.830;24.390;2022-12-29T12:35:19;95178.75;;;15.20;50.01
32243;BME280;18731;42.830;24.390;2022-12-29T12:43:38;95183.41;;;14.58;50.44
32243;BME280;18731;42.830;24.390;2022-12-29T13:06:22;95183.56;;;13.71;54.43
32243;BME280;18731;42.830;24.390;2022-12-29T13:09:12;95175.19;;;13.73;55.94
32243;BME280;18731;42.830;24.390;2022-12-29T13:14:32;95185.13;;;13.72;57.80
32243;BME280;18731;42.830;24.390;2022-12-29T13:17:23;95183.06;;;13.57;56.40
32243;BME280;18731;42.830;24.390;2022-12-29T13:19:56;95183.88;;;13.37;54.70
32243;BME280;18731;42.830;24.390;2022-12-29T13:30:59;95182.16;;;12.82;55.74
32243;BME280;18731;42.830;24.390;2022-12-29T13:38:43;95199.75;;;12.24;55.79
32243;BME280;18731;42.830;24.390;2022-12-29T13:41:14;95198.09;;;12.11;57.15
32243;BME280;18731;42.830;24.390;2022-12-29T13:43:43;95193.53;;;12.03;58.17
32243;BME280;18731;42.830;24.390;2022-12-29T13:46:19;95192.81;;;11.68;56.18
32243;BME280;18731;42.830;24.390;2022-12-29T13:48:58;95201.00;;;11.63;56.04
32243;BME280;18731;42.830;24.390;2022-12-29T13:51:26;95205.25;;;11.46;57.17
32243;BME280;18731;42.830;24.390;2022-12-29T13:59:57;95212.31;;;11.08;58.56
32243;BME280;18731;42.830;24.390;2022-12-29T14:07:43;95215.72;;;10.82;60.28
32243;BME280;18731;42.830;24.390;2022-12-29T14:10:37;95224.03;;;10.72;59.93
32243;BME280;18731;42.830;24.390;2022-12-29T14:15:42;95233.06;;;10.54;61.00
32243;BME280;18731;42.830;24.390;2022-12-29T14:21:18;95237.13;;;10.43;61.63
32243;BME280;18731;42.830;24.390;2022-12-29T14:23:47;95234.22;;;10.30;62.30
32243;BME280;18731;42.830;24.390;2022-12-29T14:26:34;95240.00;;;10.24;62.88
32243;BME280;18731;42.830;24.390;2022-12-29T14:31:55;95243.69;;;10.14;60.30
32243;BME280;18731;42.830;24.390;2022-12-29T14:37:01;95241.16;;;10.09;62.52
32243;BME280;18731;42.830;24.390;2022-12-29T14:39:34;95247.03;;;9.97;63.67
32243;BME280;18731;42.830;24.390;2022-12-29T14:47:45;95254.75;;;9.77;63.88
32243;BME280;18731;42.830;24.390;2022-12-29T14:52:55;95259.22;;;9.67;64.52
32243;BME280;18731;42.830;24.390;2022-12-29T14:58:02;95266.31;;;9.50;63.67
32243;BME280;18731;42.830;24.390;2022-12-29T15:00:33;95263.56;;;9.41;65.00
32243;BME280;18731;42.830;24.390;2022-12-29T15:03:07;95265.38;;;9.32;65.64
32243;BME280;18731;42.830;24.390;2022-12-29T15:05:42;95263.63;;;9.27;65.26
32243;BME280;18731;42.830;24.390;2022-12-29T15:08:11;95259.69;;;9.25;65.30
32243;BME280;18731;42.830;24.390;2022-12-29T15:10:42;95264.63;;;9.18;65.39
32243;BME280;18731;42.830;24.390;2022-12-29T15:13:25;95265.63;;;9.08;64.63
32243;BME280;18731;42.830;24.390;2022-12-29T15:15:57;95273.72;;;9.03;64.82
32243;BME280;18731;42.830;24.390;2022-12-29T15:18:29;95271.88;;;8.90;66.00
32243;BME280;18731;42.830;24.390;2022-12-29T15:21:05;95270.78;;;8.77;66.29
32243;BME280;18731;42.830;24.390;2022-12-29T15:23:33;95273.56;;;8.72;66.42
32243;BME280;18731;42.830;24.390;2022-12-29T15:26:05;95275.03;;;8.64;65.81
32243;BME280;18731;42.830;24.390;2022-12-29T15:28:43;95272.78;;;8.58;65.95
32243;BME280;18731;42.830;24.390;2022-12-29T15:31:16;95278.28;;;8.48;66.84
32243;BME280;18731;42.830;24.390;2022-12-29T15:33:48;95281.59;;;8.26;66.96
32243;BME280;18731;42.830;24.390;2022-12-29T15:36:36;95275.66;;;8.15;67.20
32243;BME280;18731;42.830;24.390;2022-12-29T15:39:23;95280.34;;;8.04;67.29
32243;BME280;18731;42.830;24.390;2022-12-29T15:44:42;95287.16;;;7.78;67.69
32243;BME280;18731;42.830;24.390;2022-12-29T15:47:16;95276.59;;;7.73;67.53
32243;BME280;18731;42.830;24.390;2022-12-29T15:49:44;95270.31;;;7.50;68.47
32243;BME280;18731;42.830;24.390;2022-12-29T15:52:10;95288.63;;;7.52;68.39
32243;BME280;18731;42.830;24.390;2022-12-29T15:54:37;95282.66;;;7.41;68.65
32243;BME280;18731;42.830;24.390;2022-12-29T15:57:03;95265.22;;;7.16;68.64
32243;BME280;18731;42.830;24.390;2022-12-29T15:59:32;95276.13;;;7.15;68.52
32243;BME280;18731;42.830;24.390;2022-12-29T16:02:00;95285.16;;;7.14;68.31
32243;BME280;18731;42.830;24.390;2022-12-29T16:04:29;95284.75;;;7.06;69.10
32243;BME280;18731;42.830;24.390;2022-12-29T16:07:20;95284.44;;;6.89;70.17
32243;BME280;18731;42.830;24.390;2022-12-29T16:09:47;95286.69;;;6.77;70.10
32243;BME280;18731;42.830;24.390;2022-12-29T16:12:20;95291.50;;;6.75;70.00
32243;BME280;18731;42.830;24.390;2022-12-29T16:14:50;95292.28;;;6.75;69.85
32243;BME280;18731;42.830;24.390;2022-12-29T16:17:21;95297.59;;;6.75;69.96
32243;BME280;18731;42.830;24.390;2022-12-29T16:19:52;95295.50;;;6.72;69.71
32243;BME280;18731;42.830;24.390;2022-12-29T16:22:35;95295.84;;;6.66;70.58
32243;BME280;18731;42.830;24.390;2022-12-29T16:25:07;95298.06;;;6.59;70.54
32243;BME280;18731;42.830;24.390;2022-12-29T16:27:40;95306.06;;;6.54;70.39
32243;BME280;18731;42.830;24.390;2022-12-29T16:32:56;95303.34;;;6.35;70.53
32243;BME280;18731;42.830;24.390;2022-12-29T16:35:25;95310.66;;;6.19;70.65
32243;BME280;18731;42.830;24.390;2022-12-29T16:38:17;95314.47;;;6.08;71.17
32243;BME280;18731;42.830;24.390;2022-12-29T16:40:51;95307.81;;;6.10;70.97
32243;BME280;18731;42.830;24.390;2022-12-29T16:43:32;95315.59;;;6.02;71.42
32243;BME280;18731;42.830;24.390;2022-12-29T16:48:34;95312.66;;;6.03;70.93
32243;BME280;18731;42.830;24.390;2022-12-29T16:51:06;95313.81;;;5.92;71.71
32243;BME280;18731;42.830;24.390;2022-12-29T16:53:39;95313.59;;;5.84;72.21
32243;BME280;18731;42.830;24.390;2022-12-29T16:56:15;95313.53;;;5.94;74.73
32243;BME280;18731;42.830;24.390;2022-12-29T16:58:49;95315.16;;;5.90;73.23
32243;BME280;18731;42.830;24.390;2022-12-29T17:01:16;95316.53;;;5.82;72.03
32243;BME280;18731;42.830;24.390;2022-12-29T17:03:56;95315.69;;;5.87;71.54
32243;BME280;18731;42.830;24.390;2022-12-29T17:06:23;95322.25;;;5.60;71.56
32243;BME280;18731;42.830;24.390;2022-12-29T17:08:50;95311.72;;;5.50;72.31
32243;BME280;18731;42.830;24.390;2022-12-29T17:11:31;95319.13;;;5.53;72.09
32243;BME280;18731;42.830;24.390;2022-12-29T17:16:51;95325.81;;;5.40;71.99
32243;BME280;18731;42.830;24.390;2022-12-29T17:19:20;95329.00;;;5.37;72.48
32243;BME280;18731;42.830;24.390;2022-12-29T17:21:49;95325.63;;;5.27;72.32
32243;BME280;18731;42.830;24.390;2022-12-29T17:24:18;95329.09;;;5.22;72.57
32243;BME280;18731;42.830;24.390;2022-12-29T17:26:49;95332.25;;;5.24;72.35
32243;BME280;18731;42.830;24.390;2022-12-29T17:29:35;95315.63;;;5.13;72.63
32243;BME280;18731;42.830;24.390;2022-12-29T17:32:04;95325.38;;;5.23;72.65
32243;BME280;18731;42.830;24.390;2022-12-29T17:34:31;95324.63;;;5.12;72.73
32243;BME280;18731;42.830;24.390;2022-12-29T17:36:57;95326.75;;;5.10;72.89
32243;BME280;18731;42.830;24.390;2022-12-29T17:39:23;95319.31;;;5.12;72.36
32243;BME280;18731;42.830;24.390;2022-12-29T17:41:48;95325.41;;;5.13;72.59
32243;BME280;18731;42.830;24.390;2022-12-29T17:44:19;95324.13;;;5.05;72.42
32243;BME280;18731;42.830;24.390;2022-12-29T17:46:46;95322.03;;;5.02;72.35
32243;BME280;18731;42.830;24.390;2022-12-29T17:49:15;95325.22;;;4.99;72.84
32243;BME280;18731;42.830;24.390;2022-12-29T17:51:42;95325.50;;;4.93;72.67
32243;BME280;18731;42.830;24.390;2022-12-29T17:54:22;95317.38;;;4.79;73.61
32243;BME280;18731;42.830;24.390;2022-12-29T17:56:51;95333.00;;;4.70;73.47
32243;BME280;18731;42.830;24.390;2022-12-29T17:59:17;95325.59;;;4.67;73.65
32243;BME280;18731;42.830;24.390;2022-12-29T18:01:45;95325.63;;;4.62;73.64
32243;BME280;18731;42.830;24.390;2022-12-29T18:04:17;95325.91;;;4.56;73.89
32243;BME280;18731;42.830;24.390;2022-12-29T18:06:44;95327.50;;;4.57;73.57
32243;BME280;18731;42.830;24.390;2022-12-29T18:09:10;95322.75;;;4.48;73.71
32243;BME280;18731;42.830;24.390;2022-12-29T18:11:41;95330.97;;;4.42;74.00
32243;BME280;18731;42.830;24.390;2022-12-29T18:14:15;95334.66;;;4.51;73.64
32243;BME280;18731;42.830;24.390;2022-12-29T18:16:42;95331.22;;;4.50;73.77
32243;BME280;18731;42.830;24.390;2022-12-29T18:19:08;95328.59;;;4.45;73.88
32243;BME280;18731;42.830;24.390;2022-12-29T18:21:35;95329.13;;;4.37;74.12
32243;BME280;18731;42.830;24.390;2022-12-29T18:24:01;95327.56;;;4.26;74.32
32243;BME280;18731;42.830;24.390;2022-12-29T18:26:28;95327.53;;;4.36;74.18